sensor_id;sensor_type;location;lat;lon;timestamp;pressure;altitude;pressure_sealevel;temperature;humidity
76128;BME280;64873;50.102;14.434;2024-02-26T00:01:38;97992.91;;;2.12;94.92
76128;BME280;64873;50.102;14.434;2024-02-26T00:04:03;97976.59;;;1.95;94.53
76128;BME280;64873;50.102;14.434;2024-02-26T00:06:30;97979.19;;;1.89;94.77
76128;BME280;64873;50.102;14.434;2024-02-26T00:08:55;97996.59;;;1.83;95.03
76128;BME280;64873;50.102;14.434;2024-02-26T00:11:21;97983.91;;;1.65;95.21
76128;BME280;64873;50.102;14.434;2024-02-26T00:13:46;97983.94;;;1.44;95.49
76128;BME280;64873;50.102;14.434;2024-02-26T00:16:11;97999.91;;;1.42;96.76
76128;BME280;64873;50.102;14.434;2024-02-26T00:18:37;97994.22;;;1.39;97.55
76128;BME280;64873;50.102;14.434;2024-02-26T00:21:02;97973.38;;;1.16;97.93
76128;BME280;64873;50.102;14.434;2024-02-26T00:23:28;97964.28;;;1.18;98.70
76128;BME280;64873;50.102;14.434;2024-02-26T00:25:53;97990.91;;;1.30;98.99
76128;BME280;64873;50.102;14.434;2024-02-26T00:28:20;97981.97;;;1.24;98.71
76128;BME280;64873;50.102;14.434;2024-02-26T00:30:46;97963.72;;;1.01;99.03
76128;BME280;64873;50.102;14.434;2024-02-26T00:33:11;97965.28;;;0.96;99.75
76128;BME280;64873;50.102;14.434;2024-02-26T00:35:37;97970.31;;;0.91;100.00
76128;BME280;64873;50.102;14.434;2024-02-26T00:38:02;97971.66;;;0.87;100.00
76128;BME280;64873;50.102;14.434;2024-02-26T00:40:28;97979.19;;;0.90;100.00
76128;BME280;64873;50.102;14.434;2024-02-26T00:42:54;97963.38;;;0.68;100.00
76128;BME280;64873;50.102;14.434;2024-02-26T00:45:19;97971.31;;;0.90;100.00
76128;BME280;64873;50.102;14.434;2024-02-26T00:47:45;97957.66;;;0.79;100.00
76128;BME280;64873;50.102;14.434;2024-02-26T00:50:12;97963.91;;;0.78;100.00
76128;BME280;64873;50.102;14.434;2024-02-26T00:52:37;97967.41;;;0.86;100.00
76128;BME280;64873;50.102;14.434;2024-02-26T00:55:03;97966.41;;;0.87;100.00
76128;BME280;64873;50.102;14.434;2024-02-26T00:57:29;97946.69;;;0.76;100.00
76128;BME280;64873;50.102;14.434;2024-02-26T00:59:54;97944.03;;;0.76;100.00
76128;BME280;64873;50.102;14.434;2024-02-26T01:02:21;97957.34;;;0.89;100.00
76128;BME280;64873;50.102;14.434;2024-02-26T01:04:47;97953.91;;;0.89;100.00
76128;BME280;64873;50.102;14.434;2024-02-26T01:07:12;97952.34;;;0.94;100.00
76128;BME280;64873;50.102;14.434;2024-02-26T01:09:38;97945.13;;;0.82;100.00
76128;BME280;64873;50.102;14.434;2024-02-26T01:12:03;97945.38;;;0.87;100.00
76128;BME280;64873;50.102;14.434;2024-02-26T01:14:29;97941.50;;;0.83;100.00
76128;BME280;64873;50.102;14.434;2024-02-26T01:16:54;97943.38;;;0.67;99.87
76128;BME280;64873;50.102;14.434;2024-02-26T01:19:20;97942.31;;;0.47;100.00
76128;BME280;64873;50.102;14.434;2024-02-26T01:21:46;97947.09;;;0.58;100.00
76128;BME280;64873;50.102;14.434;2024-02-26T01:24:11;97940.88;;;0.59;100.00
76128;BME280;64873;50.102;14.434;2024-02-26T01:26:37;97942.03;;;0.57;100.00
76128;BME280;64873;50.102;14.434;2024-02-26T01:29:02;97933.47;;;0.69;100.00
76128;BME280;64873;50.102;14.434;2024-02-26T01:31:28;97940.13;;;0.65;100.00
76128;BME280;64873;50.102;14.434;2024-02-26T01:33:53;97937.66;;;0.64;99.40
76128;BME280;64873;50.102;14.434;2024-02-26T01:36:19;97929.13;;;0.76;99.54
76128;BME280;64873;50.102;14.434;2024-02-26T01:38:44;97939.72;;;0.68;98.78
76128;BME280;64873;50.102;14.434;2024-02-26T01:41:10;97916.03;;;0.47;98.82
76128;BME280;64873;50.102;14.434;2024-02-26T01:43:35;97930.84;;;0.48;99.12
76128;BME280;64873;50.102;14.434;2024-02-26T01:46:00;97924.44;;;0.57;99.04
76128;BME280;64873;50.102;14.434;2024-02-26T01:48:26;97926.88;;;0.59;98.78
76128;BME280;64873;50.102;14.434;2024-02-26T01:50:51;97922.69;;;0.64;98.79
76128;BME280;64873;50.102;14.434;2024-02-26T01:53:18;97907.19;;;0.48;99.20
76128;BME280;64873;50.102;14.434;2024-02-26T01:55:45;97909.22;;;0.52;98.92
76128;BME280;64873;50.102;14.434;2024-02-26T01:58:11;97916.31;;;0.52;98.97
76128;BME280;64873;50.102;14.434;2024-02-26T02:00:37;97900.16;;;0.34;99.20
76128;BME280;64873;50.102;14.434;2024-02-26T02:03:04;97898.59;;;0.39;99.63
76128;BME280;64873;50.102;14.434;2024-02-26T02:05:30;97917.38;;;0.58;99.50
76128;BME280;64873;50.102;14.434;2024-02-26T02:07:56;97905.19;;;0.50;99.39
76128;BME280;64873;50.102;14.434;2024-02-26T02:10:21;97916.56;;;0.57;99.12
76128;BME280;64873;50.102;14.434;2024-02-26T02:12:51;97922.81;;;0.56;99.34
76128;BME280;64873;50.102;14.434;2024-02-26T02:15:16;97931.16;;;0.60;98.98
76128;BME280;64873;50.102;14.434;2024-02-26T02:17:42;97915.22;;;0.46;98.90
76128;BME280;64873;50.102;14.434;2024-02-26T02:20:09;97922.78;;;0.35;99.43
76128;BME280;64873;50.102;14.434;2024-02-26T02:22:40;97910.66;;;0.34;99.70
76128;BME280;64873;50.102;14.434;2024-02-26T02:25:05;97911.91;;;0.38;100.00
76128;BME280;64873;50.102;14.434;2024-02-26T02:27:31;97915.03;;;0.26;100.00
76128;BME280;64873;50.102;14.434;2024-02-26T02:29:56;97896.69;;;0.33;100.00
76128;BME280;64873;50.102;14.434;2024-02-26T02:32:22;97920.16;;;0.35;100.00
76128;BME280;64873;50.102;14.434;2024-02-26T02:34:49;97920.53;;;0.32;100.00
76128;BME280;64873;50.102;14.434;2024-02-26T02:37:14;97919.47;;;0.26;100.00
76128;BME280;64873;50.102;14.434;2024-02-26T02:39:40;97911.03;;;0.31;100.00
76128;BME280;64873;50.102;14.434;2024-02-26T02:42:07;97885.88;;;0.21;100.00
76128;BME280;64873;50.102;14.434;2024-02-26T02:44:32;97900.72;;;0.50;100.00
76128;BME280;64873;50.102;14.434;2024-02-26T02:46:58;97875.41;;;0.43;100.00
76128;BME280;64873;50.102;14.434;2024-02-26T02:49:23;97896.53;;;0.56;100.00
76128;BME280;64873;50.102;14.434;2024-02-26T02:51:48;97886.75;;;0.29;100.00
76128;BME280;64873;50.102;14.434;2024-02-26T02:54:14;97878.75;;;0.58;100.00
76128;BME280;64873;50.102;14.434;2024-02-26T02:56:39;97908.56;;;0.65;100.00
76128;BME280;64873;50.102;14.434;2024-02-26T02:59:05;97900.81;;;0.78;100.00
76128;BME280;64873;50.102;14.434;2024-02-26T03:01:30;97910.13;;;0.81;100.00
76128;BME280;64873;50.102;14.434;2024-02-26T03:03:56;97905.19;;;0.71;100.00
76128;BME280;64873;50.102;14.434;2024-02-26T03:06:21;97909.19;;;0.89;99.80
76128;BME280;64873;50.102;14.434;2024-02-26T03:08:46;97904.91;;;0.88;98.97
76128;BME280;64873;50.102;14.434;2024-02-26T03:11:15;97898.91;;;0.94;97.86
76128;BME280;64873;50.102;14.434;2024-02-26T03:13:41;97899.34;;;0.76;97.92
76128;BME280;64873;50.102;14.434;2024-02-26T03:16:06;97908.47;;;0.59;98.19
76128;BME280;64873;50.102;14.434;2024-02-26T03:18:32;97909.16;;;0.46;98.63
76128;BME280;64873;50.102;14.434;2024-02-26T03:20:57;97912.84;;;0.30;99.40
76128;BME280;64873;50.102;14.434;2024-02-26T03:23:22;97914.03;;;0.28;100.00
76128;BME280;64873;50.102;14.434;2024-02-26T03:25:48;97918.28;;;0.29;100.00
76128;BME280;64873;50.102;14.434;2024-02-26T03:28:13;97906.53;;;0.10;100.00
76128;BME280;64873;50.102;14.434;2024-02-26T03:30:39;97914.06;;;0.13;100.00
76128;BME280;64873;50.102;14.434;2024-02-26T03:33:04;97898.13;;;-0.01;100.00
76128;BME280;64873;50.102;14.434;2024-02-26T03:35:30;97904.09;;;-0.07;100.00
76128;BME280;64873;50.102;14.434;2024-02-26T03:37:55;97921.22;;;0.04;100.00
76128;BME280;64873;50.102;14.434;2024-02-26T03:40:20;97917.59;;;0.05;100.00
76128;BME280;64873;50.102;14.434;2024-02-26T03:42:46;97915.97;;;0.04;100.00
76128;BME280;64873;50.102;14.434;2024-02-26T03:45:11;97917.59;;;0.05;100.00
76128;BME280;64873;50.102;14.434;2024-02-26T03:47:40;97916.84;;;0.11;100.00
76128;BME280;64873;50.102;14.434;2024-02-26T03:50:06;97925.00;;;0.16;100.00
76128;BME280;64873;50.102;14.434;2024-02-26T03:52:33;97920.88;;;0.07;100.00
76128;BME280;64873;50.102;14.434;2024-02-26T03:54:59;97919.31;;;0.13;100.00
76128;BME280;64873;50.102;14.434;2024-02-26T03:57:24;97899.66;;;-0.06;100.00
76128;BME280;64873;50.102;14.434;2024-02-26T03:59:50;97913.16;;;0.06;100.00
76128;BME280;64873;50.102;14.434;2024-02-26T04:02:16;97899.59;;;0.02;100.00
76128;BME280;64873;50.102;14.434;2024-02-26T04:04:41;97929.34;;;0.09;100.00
76128;BME280;64873;50.102;14.434;2024-02-26T04:07:06;97924.38;;;0.14;100.00
76128;BME280;64873;50.102;14.434;2024-02-26T04:09:32;97931.72;;;0.04;100.00
76128;BME280;64873;50.102;14.434;2024-02-26T04:11:58;97925.03;;;0.02;100.00
76128;BME280;64873;50.102;14.434;2024-02-26T04:14:23;97927.28;;;0.05;100.00
76128;BME280;64873;50.102;14.434;2024-02-26T04:16:48;97927.19;;;-0.02;100.00
76128;BME280;64873;50.102;14.434;2024-02-26T04:19:17;97929.94;;;-0.10;100.00
76128;BME280;64873;50.102;14.434;2024-02-26T04:21:43;97931.56;;;-0.09;100.00
76128;BME280;64873;50.102;14.434;2024-02-26T04:24:08;97935.34;;;0.03;100.00
76128;BME280;64873;50.102;14.434;2024-02-26T04:26:34;97914.88;;;0.13;100.00
76128;BME280;64873;50.102;14.434;2024-02-26T04:29:00;97922.50;;;0.08;100.00
76128;BME280;64873;50.102;14.434;2024-02-26T04:31:25;97902.75;;;-0.03;100.00
76128;BME280;64873;50.102;14.434;2024-02-26T04:33:51;97915.59;;;0.07;100.00
76128;BME280;64873;50.102;14.434;2024-02-26T04:36:17;97934.63;;;0.09;100.00
76128;BME280;64873;50.102;14.434;2024-02-26T04:38:43;97910.34;;;0.07;100.00
76128;BME280;64873;50.102;14.434;2024-02-26T04:41:09;97927.00;;;0.14;100.00
76128;BME280;64873;50.102;14.434;2024-02-26T04:43:35;97928.28;;;0.18;100.00
76128;BME280;64873;50.102;14.434;2024-02-26T04:46:06;97933.53;;;0.18;100.00
76128;BME280;64873;50.102;14.434;2024-02-26T04:48:33;97917.66;;;0.12;100.00
76128;BME280;64873;50.102;14.434;2024-02-26T04:50:59;97938.66;;;0.26;100.00
76128;BME280;64873;50.102;14.434;2024-02-26T04:53:24;97926.28;;;0.20;100.00
76128;BME280;64873;50.102;14.434;2024-02-26T04:55:49;97923.38;;;0.30;100.00
76128;BME280;64873;50.102;14.434;2024-02-26T04:58:15;97925.31;;;0.43;100.00
76128;BME280;64873;50.102;14.434;2024-02-26T05:00:40;97925.59;;;0.33;99.96
76128;BME280;64873;50.102;14.434;2024-02-26T05:03:05;97906.06;;;0.21;100.00
76128;BME280;64873;50.102;14.434;2024-02-26T05:05:31;97931.13;;;0.23;99.92
76128;BME280;64873;50.102;14.434;2024-02-26T05:07:56;97929.50;;;0.22;100.00
76128;BME280;64873;50.102;14.434;2024-02-26T05:10:22;97941.28;;;0.26;100.00
76128;BME280;64873;50.102;14.434;2024-02-26T05:12:47;97926.28;;;0.06;100.00
76128;BME280;64873;50.102;14.434;2024-02-26T05:15:13;97927.75;;;0.08;100.00
76128;BME280;64873;50.102;14.434;2024-02-26T05:17:43;97927.91;;;0.21;100.00
76128;BME280;64873;50.102;14.434;2024-02-26T05:20:09;97939.47;;;0.27;100.00
76128;BME280;64873;50.102;14.434;2024-02-26T05:22:35;97948.91;;;0.21;100.00
76128;BME280;64873;50.102;14.434;2024-02-26T05:25:00;97945.53;;;0.28;100.00
76128;BME280;64873;50.102;14.434;2024-02-26T05:27:25;97951.88;;;0.33;100.00
76128;BME280;64873;50.102;14.434;2024-02-26T05:29:51;97933.94;;;0.37;100.00
76128;BME280;64873;50.102;14.434;2024-02-26T05:32:17;97948.09;;;0.36;100.00
76128;BME280;64873;50.102;14.434;2024-02-26T05:34:42;97938.50;;;0.13;100.00
76128;BME280;64873;50.102;14.434;2024-02-26T05:37:07;97945.88;;;0.39;100.00
76128;BME280;64873;50.102;14.434;2024-02-26T05:39:33;97955.13;;;0.35;100.00
76128;BME280;64873;50.102;14.434;2024-02-26T05:41:58;97944.06;;;0.40;100.00
76128;BME280;64873;50.102;14.434;2024-02-26T05:44:26;97957.38;;;0.53;100.00
76128;BME280;64873;50.102;14.434;2024-02-26T05:46:51;97953.00;;;0.60;100.00
76128;BME280;64873;50.102;14.434;2024-02-26T05:49:17;97953.50;;;0.70;100.00
76128;BME280;64873;50.102;14.434;2024-02-26T05:51:42;97954.25;;;0.64;100.00
76128;BME280;64873;50.102;14.434;2024-02-26T05:54:08;97961.50;;;0.62;100.00
76128;BME280;64873;50.102;14.434;2024-02-26T05:56:35;97965.00;;;0.69;100.00
76128;BME280;64873;50.102;14.434;2024-02-26T05:59:00;97965.88;;;0.55;100.00
76128;BME280;64873;50.102;14.434;2024-02-26T06:01:26;97971.41;;;0.60;100.00
76128;BME280;64873;50.102;14.434;2024-02-26T06:03:51;97975.59;;;0.55;100.00
76128;BME280;64873;50.102;14.434;2024-02-26T06:06:17;97976.13;;;0.65;100.00
76128;BME280;64873;50.102;14.434;2024-02-26T06:08:43;97974.78;;;0.54;100.00
76128;BME280;64873;50.102;14.434;2024-02-26T06:11:09;97971.50;;;0.52;100.00
76128;BME280;64873;50.102;14.434;2024-02-26T06:13:35;97986.16;;;0.61;100.00
76128;BME280;64873;50.102;14.434;2024-02-26T06:16:00;97982.78;;;0.67;100.00
76128;BME280;64873;50.102;14.434;2024-02-26T06:18:26;97978.03;;;0.56;100.00
76128;BME280;64873;50.102;14.434;2024-02-26T06:20:51;97989.81;;;0.60;100.00
76128;BME280;64873;50.102;14.434;2024-02-26T06:23:16;97985.88;;;0.71;99.97
76128;BME280;64873;50.102;14.434;2024-02-26T06:25:42;97966.84;;;0.69;99.98
76128;BME280;64873;50.102;14.434;2024-02-26T06:28:10;97992.47;;;1.03;99.90
76128;BME280;64873;50.102;14.434;2024-02-26T06:30:36;97997.13;;;1.01;99.32
76128;BME280;64873;50.102;14.434;2024-02-26T06:33:01;97997.22;;;0.93;98.99
76128;BME280;64873;50.102;14.434;2024-02-26T06:35:27;98002.19;;;1.24;99.07
76128;BME280;64873;50.102;14.434;2024-02-26T06:37:52;98010.59;;;1.13;99.31
76128;BME280;64873;50.102;14.434;2024-02-26T06:40:19;98007.47;;;0.88;98.30
76128;BME280;64873;50.102;14.434;2024-02-26T06:42:44;97995.78;;;0.90;98.65
76128;BME280;64873;50.102;14.434;2024-02-26T06:45:10;98002.78;;;0.83;98.33
76128;BME280;64873;50.102;14.434;2024-02-26T06:47:36;98020.41;;;1.04;98.57
76128;BME280;64873;50.102;14.434;2024-02-26T06:50:01;98001.56;;;1.00;98.43
76128;BME280;64873;50.102;14.434;2024-02-26T06:52:27;98021.84;;;1.06;97.63
76128;BME280;64873;50.102;14.434;2024-02-26T06:54:52;98016.53;;;1.00;98.15
76128;BME280;64873;50.102;14.434;2024-02-26T06:57:21;98019.91;;;1.15;98.12
76128;BME280;64873;50.102;14.434;2024-02-26T06:59:46;98031.00;;;1.32;99.23
76128;BME280;64873;50.102;14.434;2024-02-26T07:02:15;98020.13;;;1.35;98.62
76128;BME280;64873;50.102;14.434;2024-02-26T07:04:42;98019.66;;;1.31;97.31
76128;BME280;64873;50.102;14.434;2024-02-26T07:07:08;98026.28;;;1.27;96.76
76128;BME280;64873;50.102;14.434;2024-02-26T07:09:33;98015.22;;;0.74;97.43
76128;BME280;64873;50.102;14.434;2024-02-26T07:11:59;98024.38;;;0.78;98.58
76128;BME280;64873;50.102;14.434;2024-02-26T07:14:24;98026.41;;;0.47;100.00
76128;BME280;64873;50.102;14.434;2024-02-26T07:16:50;98038.47;;;0.71;100.00
76128;BME280;64873;50.102;14.434;2024-02-26T07:19:16;98013.88;;;0.64;100.00
76128;BME280;64873;50.102;14.434;2024-02-26T07:21:41;98013.31;;;0.32;100.00
76128;BME280;64873;50.102;14.434;2024-02-26T07:24:06;98009.56;;;0.56;100.00
76128;BME280;64873;50.102;14.434;2024-02-26T07:26:32;98004.09;;;0.58;100.00
76128;BME280;64873;50.102;14.434;2024-02-26T07:28:57;98010.66;;;0.47;100.00
76128;BME280;64873;50.102;14.434;2024-02-26T07:31:23;98025.78;;;0.60;100.00
76128;BME280;64873;50.102;14.434;2024-02-26T07:33:48;98006.47;;;0.67;100.00
76128;BME280;64873;50.102;14.434;2024-02-26T07:36:14;98025.66;;;0.83;100.00
76128;BME280;64873;50.102;14.434;2024-02-26T07:38:39;98034.97;;;0.85;100.00
76128;BME280;64873;50.102;14.434;2024-02-26T07:41:05;98030.84;;;0.97;100.00
76128;BME280;64873;50.102;14.434;2024-02-26T07:43:30;98018.28;;;1.14;100.00
76128;BME280;64873;50.102;14.434;2024-02-26T07:45:56;98022.69;;;1.56;100.00
76128;BME280;64873;50.102;14.434;2024-02-26T07:48:21;98008.75;;;0.92;100.00
76128;BME280;64873;50.102;14.434;2024-02-26T07:50:46;98028.91;;;1.70;100.00
76128;BME280;64873;50.102;14.434;2024-02-26T07:53:13;98030.63;;;1.84;100.00
76128;BME280;64873;50.102;14.434;2024-02-26T07:55:38;98025.03;;;1.45;99.56
76128;BME280;64873;50.102;14.434;2024-02-26T07:58:04;98024.78;;;1.40;99.01
76128;BME280;64873;50.102;14.434;2024-02-26T08:00:29;98016.94;;;1.96;98.56
76128;BME280;64873;50.102;14.434;2024-02-26T08:02:54;98039.50;;;1.55;98.43
76128;BME280;64873;50.102;14.434;2024-02-26T08:05:20;98037.03;;;1.75;98.54
76128;BME280;64873;50.102;14.434;2024-02-26T08:07:45;98040.16;;;1.64;98.63
76128;BME280;64873;50.102;14.434;2024-02-26T08:10:11;98026.13;;;1.78;98.85
76128;BME280;64873;50.102;14.434;2024-02-26T08:12:36;98047.38;;;2.05;98.71
76128;BME280;64873;50.102;14.434;2024-02-26T08:15:02;98048.66;;;2.16;97.13
76128;BME280;64873;50.102;14.434;2024-02-26T08:17:28;98029.38;;;1.80;96.39
76128;BME280;64873;50.102;14.434;2024-02-26T08:19:53;98048.00;;;2.07;95.92
76128;BME280;64873;50.102;14.434;2024-02-26T08:22:19;98045.94;;;2.30;96.12
76128;BME280;64873;50.102;14.434;2024-02-26T08:24:44;98036.25;;;2.44;95.70
76128;BME280;64873;50.102;14.434;2024-02-26T08:27:10;98048.44;;;2.52;94.11
76128;BME280;64873;50.102;14.434;2024-02-26T08:29:35;98048.31;;;2.60;92.96
76128;BME280;64873;50.102;14.434;2024-02-26T08:32:01;98039.69;;;2.45;93.14
76128;BME280;64873;50.102;14.434;2024-02-26T08:34:26;98048.41;;;2.45;93.26
76128;BME280;64873;50.102;14.434;2024-02-26T08:36:51;98050.00;;;2.81;93.17
76128;BME280;64873;50.102;14.434;2024-02-26T08:39:17;98044.88;;;2.66;93.32
76128;BME280;64873;50.102;14.434;2024-02-26T08:41:45;98051.22;;;2.78;92.26
76128;BME280;64873;50.102;14.434;2024-02-26T08:44:11;98040.88;;;2.77;94.11
76128;BME280;64873;50.102;14.434;2024-02-26T08:46:37;98039.25;;;2.76;93.51
76128;BME280;64873;50.102;14.434;2024-02-26T08:49:02;98058.38;;;2.98;91.21
76128;BME280;64873;50.102;14.434;2024-02-26T08:51:28;98051.69;;;2.88;91.05
76128;BME280;64873;50.102;14.434;2024-02-26T08:53:53;98051.09;;;3.00;91.17
76128;BME280;64873;50.102;14.434;2024-02-26T08:56:20;98043.13;;;2.93;91.18
76128;BME280;64873;50.102;14.434;2024-02-26T08:58:47;98040.34;;;3.01;91.35
76128;BME280;64873;50.102;14.434;2024-02-26T09:01:14;98040.16;;;3.09;91.09
76128;BME280;64873;50.102;14.434;2024-02-26T09:03:40;98044.25;;;3.25;90.31
76128;BME280;64873;50.102;14.434;2024-02-26T09:06:08;98052.56;;;3.22;90.35
76128;BME280;64873;50.102;14.434;2024-02-26T09:08:33;98048.50;;;3.13;91.35
76128;BME280;64873;50.102;14.434;2024-02-26T09:11:01;98049.81;;;2.82;91.56
76128;BME280;64873;50.102;14.434;2024-02-26T09:13:26;98055.72;;;2.91;93.16
76128;BME280;64873;50.102;14.434;2024-02-26T09:15:52;98054.22;;;3.30;91.82
76128;BME280;64873;50.102;14.434;2024-02-26T09:18:17;98050.34;;;3.19;90.88
76128;BME280;64873;50.102;14.434;2024-02-26T09:20:42;98056.06;;;3.42;90.56
76128;BME280;64873;50.102;14.434;2024-02-26T09:23:09;98066.03;;;3.54;90.65
76128;BME280;64873;50.102;14.434;2024-02-26T09:25:34;98057.31;;;3.60;90.61
76128;BME280;64873;50.102;14.434;2024-02-26T09:28:00;98060.97;;;3.72;89.74
76128;BME280;64873;50.102;14.434;2024-02-26T09:30:26;98043.06;;;3.81;89.70
76128;BME280;64873;50.102;14.434;2024-02-26T09:32:51;98055.69;;;3.85;89.28
76128;BME280;64873;50.102;14.434;2024-02-26T09:35:16;98060.16;;;3.58;89.69
76128;BME280;64873;50.102;14.434;2024-02-26T09:37:42;98059.75;;;3.81;89.90
76128;BME280;64873;50.102;14.434;2024-02-26T09:40:10;98066.25;;;3.85;89.38
76128;BME280;64873;50.102;14.434;2024-02-26T09:42:45;98065.44;;;4.05;89.49
76128;BME280;64873;50.102;14.434;2024-02-26T09:45:21;98042.44;;;4.25;88.20
76128;BME280;64873;50.102;14.434;2024-02-26T09:47:48;98069.25;;;4.42;87.37
76128;BME280;64873;50.102;14.434;2024-02-26T09:50:14;98068.16;;;4.63;86.96
76128;BME280;64873;50.102;14.434;2024-02-26T09:52:43;98050.16;;;4.40;86.60
76128;BME280;64873;50.102;14.434;2024-02-26T09:55:08;98061.88;;;4.64;86.79
76128;BME280;64873;50.102;14.434;2024-02-26T09:57:36;98050.66;;;4.68;86.40
76128;BME280;64873;50.102;14.434;2024-02-26T10:00:03;98055.44;;;4.91;86.32
76128;BME280;64873;50.102;14.434;2024-02-26T10:02:34;98032.44;;;4.92;85.32
76128;BME280;64873;50.102;14.434;2024-02-26T10:05:02;98042.75;;;5.06;84.65
76128;BME280;64873;50.102;14.434;2024-02-26T10:07:30;98053.94;;;5.08;85.23
76128;BME280;64873;50.102;14.434;2024-02-26T10:09:57;98036.97;;;4.78;86.29
76128;BME280;64873;50.102;14.434;2024-02-26T10:12:26;98058.19;;;5.09;85.45
76128;BME280;64873;50.102;14.434;2024-02-26T10:14:53;98062.69;;;5.09;85.45
76128;BME280;64873;50.102;14.434;2024-02-26T10:17:18;98069.63;;;5.10;84.67
76128;BME280;64873;50.102;14.434;2024-02-26T10:19:45;98070.00;;;5.14;85.00
76128;BME280;64873;50.102;14.434;2024-02-26T10:22:10;98073.44;;;5.21;84.81
76128;BME280;64873;50.102;14.434;2024-02-26T10:24:36;98066.66;;;5.31;85.47
76128;BME280;64873;50.102;14.434;2024-02-26T10:27:02;98084.94;;;5.71;82.60
76128;BME280;64873;50.102;14.434;2024-02-26T10:29:27;98076.44;;;5.94;81.83
76128;BME280;64873;50.102;14.434;2024-02-26T10:31:53;98061.44;;;5.81;82.99
76128;BME280;64873;50.102;14.434;2024-02-26T10:34:19;98070.28;;;6.00;83.80
76128;BME280;64873;50.102;14.434;2024-02-26T10:36:45;98079.38;;;6.11;80.54
76128;BME280;64873;50.102;14.434;2024-02-26T10:39:13;98081.91;;;5.36;82.07
76128;BME280;64873;50.102;14.434;2024-02-26T10:41:43;98086.34;;;5.11;84.33
76128;BME280;64873;50.102;14.434;2024-02-26T10:44:09;98088.84;;;4.86;86.33
76128;BME280;64873;50.102;14.434;2024-02-26T10:46:40;98059.22;;;4.64;86.75
76128;BME280;64873;50.102;14.434;2024-02-26T10:49:07;98077.88;;;4.82;86.82
76128;BME280;64873;50.102;14.434;2024-02-26T10:51:37;98087.66;;;4.81;87.20
76128;BME280;64873;50.102;14.434;2024-02-26T10:54:04;98101.84;;;5.00;86.88
76128;BME280;64873;50.102;14.434;2024-02-26T10:56:34;98094.44;;;5.16;85.66
76128;BME280;64873;50.102;14.434;2024-02-26T10:59:00;98100.44;;;4.91;86.45
76128;BME280;64873;50.102;14.434;2024-02-26T11:01:27;98094.09;;;5.05;86.57
76128;BME280;64873;50.102;14.434;2024-02-26T11:03:55;98105.50;;;5.44;86.27
76128;BME280;64873;50.102;14.434;2024-02-26T11:06:21;98108.28;;;5.87;82.82
76128;BME280;64873;50.102;14.434;2024-02-26T11:08:50;98096.31;;;6.10;82.75
76128;BME280;64873;50.102;14.434;2024-02-26T11:11:17;98075.69;;;5.80;82.05
76128;BME280;64873;50.102;14.434;2024-02-26T11:13:45;98088.88;;;6.19;81.39
76128;BME280;64873;50.102;14.434;2024-02-26T11:16:16;98089.97;;;6.36;79.40
76128;BME280;64873;50.102;14.434;2024-02-26T11:18:43;98064.63;;;6.40;80.14
76128;BME280;64873;50.102;14.434;2024-02-26T11:21:15;98073.09;;;6.85;82.03
76128;BME280;64873;50.102;14.434;2024-02-26T11:23:41;98080.69;;;7.00;79.29
76128;BME280;64873;50.102;14.434;2024-02-26T11:26:08;98076.84;;;6.96;77.46
76128;BME280;64873;50.102;14.434;2024-02-26T11:28:36;98074.66;;;6.93;77.24
76128;BME280;64873;50.102;14.434;2024-02-26T11:31:03;98075.75;;;7.04;75.87
76128;BME280;64873;50.102;14.434;2024-02-26T11:33:30;98079.94;;;7.11;75.87
76128;BME280;64873;50.102;14.434;2024-02-26T11:35:55;98089.69;;;6.99;76.17
76128;BME280;64873;50.102;14.434;2024-02-26T11:38:22;98084.38;;;6.62;77.92
76128;BME280;64873;50.102;14.434;2024-02-26T11:40:50;98079.94;;;6.56;79.86
76128;BME280;64873;50.102;14.434;2024-02-26T11:43:16;98089.56;;;6.57;77.40
76128;BME280;64873;50.102;14.434;2024-02-26T11:48:20;98076.91;;;6.34;79.61
76128;BME280;64873;50.102;14.434;2024-02-26T11:50:48;98081.69;;;6.26;78.50
76128;BME280;64873;50.102;14.434;2024-02-26T11:53:28;98054.44;;;6.37;79.79
76128;BME280;64873;50.102;14.434;2024-02-26T11:58:42;98072.97;;;6.19;79.19
76128;BME280;64873;50.102;14.434;2024-02-26T12:01:42;98080.91;;;6.62;78.40
76128;BME280;64873;50.102;14.434;2024-02-26T12:04:23;98079.22;;;6.67;78.00
76128;BME280;64873;50.102;14.434;2024-02-26T12:06:55;98069.03;;;7.01;76.57
76128;BME280;64873;50.102;14.434;2024-02-26T12:09:41;98041.91;;;6.81;75.74
76128;BME280;64873;50.102;14.434;2024-02-26T12:12:08;98070.97;;;6.94;76.08
76128;BME280;64873;50.102;14.434;2024-02-26T12:14:55;98074.28;;;6.71;78.13
76128;BME280;64873;50.102;14.434;2024-02-26T12:17:23;98060.94;;;6.41;77.79
76128;BME280;64873;50.102;14.434;2024-02-26T12:19:49;98061.66;;;6.85;76.51
76128;BME280;64873;50.102;14.434;2024-02-26T12:22:15;98068.28;;;7.12;76.40
76128;BME280;64873;50.102;14.434;2024-02-26T12:24:42;98068.59;;;7.04;76.48
76128;BME280;64873;50.102;14.434;2024-02-26T12:27:07;98064.56;;;7.43;75.70
76128;BME280;64873;50.102;14.434;2024-02-26T12:29:33;98052.63;;;7.22;75.38
76128;BME280;64873;50.102;14.434;2024-02-26T12:31:58;98060.06;;;7.44;74.83
76128;BME280;64873;50.102;14.434;2024-02-26T12:34:24;98043.09;;;7.45;73.60
76128;BME280;64873;50.102;14.434;2024-02-26T12:36:50;98054.75;;;7.44;74.38
76128;BME280;64873;50.102;14.434;2024-02-26T12:39:16;98040.75;;;7.37;73.86
76128;BME280;64873;50.102;14.434;2024-02-26T12:41:41;98066.66;;;7.11;76.59
76128;BME280;64873;50.102;14.434;2024-02-26T12:44:11;98052.50;;;6.99;75.39
76128;BME280;64873;50.102;14.434;2024-02-26T12:46:37;98058.97;;;7.21;75.39
76128;BME280;64873;50.102;14.434;2024-02-26T12:49:02;98056.19;;;7.58;73.78
76128;BME280;64873;50.102;14.434;2024-02-26T12:51:28;98062.34;;;7.29;74.52
76128;BME280;64873;50.102;14.434;2024-02-26T12:53:55;98050.19;;;7.03;75.65
76128;BME280;64873;50.102;14.434;2024-02-26T12:56:22;98078.19;;;7.35;74.60